createdAt,value
2018-11-20T00:00:18.358Z,26.57
2018-11-20T00:03:22.613Z,24.40
2018-11-20T00:06:12.656Z,22.32
2018-11-20T00:09:17.007Z,21.82
2018-11-20T00:12:09.826Z,22.45
2018-11-20T00:14:57.668Z,20.90
2018-11-20T00:17:49.632Z,23.07
2018-11-20T00:20:48.649Z,21.70
2018-11-20T00:23:39.000Z,25.30
2018-11-20T00:26:51.172Z,26.00
2018-11-20T00:29:40.600Z,23.90
2018-11-20T00:32:57.313Z,22.37
2018-11-20T00:35:41.397Z,25.68
2018-11-20T00:38:22.560Z,24.82
2018-11-20T00:41:09.276Z,24.02
2018-11-20T00:44:04.460Z,21.95
2018-11-20T00:46:49.508Z,26.52
2018-11-20T00:49:38.272Z,22.22
2018-11-20T00:52:52.700Z,25.92
2018-11-20T00:56:38.835Z,24.63
2018-11-20T00:59:30.894Z,25.00
2018-11-20T01:02:35.089Z,23.83
2018-11-20T01:05:17.350Z,25.82
2018-11-20T01:08:06.228Z,22.70
2018-11-20T01:11:04.209Z,24.18
2018-11-20T01:14:15.476Z,23.85
2018-11-20T01:17:03.944Z,22.70
2018-11-20T01:20:03.228Z,24.45
2018-11-20T01:22:44.232Z,21.60
2018-11-20T01:25:45.425Z,23.90
2018-11-20T01:28:29.380Z,24.12
2018-11-20T01:31:25.360Z,23.73
2018-11-20T01:34:24.452Z,25.02
2018-11-20T01:37:31.771Z,22.37
2018-11-20T01:40:26.096Z,22.52
2018-11-20T01:43:20.460Z,21.60
2018-11-20T01:46:11.673Z,24.35
2018-11-20T01:48:48.956Z,24.30
2018-11-20T01:51:36.956Z,22.85
2018-11-20T01:54:25.916Z,24.07
2018-11-20T01:57:26.708Z,22.90
2018-11-20T02:00:20.892Z,22.75
2018-11-20T02:03:18.992Z,22.10
2018-11-20T02:06:06.884Z,25.72
2018-11-20T02:08:51.900Z,25.40
2018-11-20T02:11:47.518Z,24.55
2018-11-20T02:14:50.256Z,24.02
2018-11-20T02:18:21.044Z,27.05
2018-11-20T02:21:13.189Z,26.12
2018-11-20T02:24:05.576Z,25.80
2018-11-20T02:26:47.988Z,25.75
2018-11-20T02:29:37.913Z,24.47
2018-11-20T02:32:29.332Z,24.85
2018-11-20T02:35:36.684Z,26.62
2018-11-20T02:38:20.724Z,26.40
2018-11-20T02:41:09.624Z,27.15
2018-11-20T02:43:48.812Z,26.00
2018-11-20T02:46:32.605Z,25.92
2018-11-20T02:49:27.549Z,25.23
2018-11-20T02:52:26.481Z,25.12
2018-11-20T02:55:17.238Z,24.07
2018-11-20T02:58:12.950Z,25.70
2018-11-20T03:01:12.248Z,24.35
2018-11-20T03:04:00.986Z,25.35
2018-11-20T03:06:48.966Z,29.57
2018-11-20T03:09:40.881Z,26.25
2018-11-20T03:12:48.268Z,27.70
2018-11-20T03:15:36.860Z,25.08
2018-11-20T03:18:24.757Z,26.17
2018-11-20T03:21:25.673Z,25.60
2018-11-20T03:24:29.876Z,26.50
2018-11-20T03:27:12.577Z,23.50
2018-11-20T03:30:58.682Z,26.55
2018-11-20T03:33:46.538Z,25.95
2018-11-20T03:36:46.865Z,25.77
2018-11-20T03:39:40.844Z,23.22
2018-11-20T03:42:30.665Z,24.23
2018-11-20T03:45:20.229Z,24.20
2018-11-20T03:48:19.244Z,26.10
2018-11-20T03:51:27.121Z,25.85
2018-11-20T03:54:21.420Z,28.05
2018-11-20T03:57:00.233Z,25.55
2018-11-20T03:59:46.057Z,25.17
2018-11-20T04:02:44.132Z,25.68
2018-11-20T04:05:23.117Z,27.67
2018-11-20T04:08:12.897Z,25.60
2018-11-20T04:11:11.168Z,27.25
2018-11-20T04:14:07.621Z,21.12
2018-11-20T04:17:07.957Z,24.72
2018-11-20T04:19:56.201Z,25.35
2018-11-20T04:22:46.301Z,24.25
2018-11-20T04:25:34.614Z,22.82
2018-11-20T04:28:30.557Z,24.10
2018-11-20T04:32:04.177Z,22.52
2018-11-20T04:34:51.497Z,24.27
2018-11-20T04:37:40.860Z,22.50
2018-11-20T04:40:38.120Z,22.52
2018-11-20T04:43:39.305Z,23.02
2018-11-20T04:46:34.537Z,24.52
2018-11-20T04:49:29.921Z,25.20
2018-11-20T04:52:37.665Z,24.27
2018-11-20T04:55:18.373Z,20.70
2018-11-20T04:58:06.033Z,25.08
2018-11-20T05:01:04.009Z,23.12
2018-11-20T05:04:07.677Z,24.65
2018-11-20T05:06:55.593Z,23.00
2018-11-20T05:09:43.488Z,22.27
2018-11-20T05:12:48.293Z,23.52
2018-11-20T05:15:37.209Z,23.73
2018-11-20T05:18:25.601Z,21.82
2018-11-20T05:21:29.521Z,21.95
2018-11-20T05:24:22.816Z,21.12
2018-11-20T05:27:08.928Z,20.97
2018-11-20T05:30:13.736Z,20.90
2018-11-20T05:33:04.532Z,20.08
2018-11-20T05:35:55.547Z,23.35
2018-11-20T05:38:53.777Z,19.77
2018-11-20T05:41:42.792Z,20.68
2018-11-20T05:44:34.777Z,21.73
2018-11-20T05:47:22.857Z,20.40
2018-11-20T05:50:11.205Z,22.10
2018-11-20T05:52:51.344Z,20.37
2018-11-20T05:55:40.450Z,19.48
2018-11-20T05:58:22.957Z,20.32
2018-11-20T06:01:30.365Z,18.73
2018-11-20T06:04:28.352Z,19.10
2018-11-20T06:07:20.680Z,17.90
2018-11-20T06:10:15.972Z,19.60
2018-11-20T06:13:04.741Z,19.12
2018-11-20T06:16:00.617Z,18.10
2018-11-20T06:18:54.260Z,19.90
2018-11-20T06:21:51.953Z,18.85
2018-11-20T06:24:47.065Z,16.45
2018-11-20T06:27:28.039Z,17.90
2018-11-20T06:30:25.805Z,20.90
2018-11-20T06:33:14.239Z,19.20
2018-11-20T06:35:57.185Z,18.35
2018-11-20T06:38:55.156Z,17.10
2018-11-20T06:41:47.001Z,16.87
2018-11-20T06:44:46.673Z,17.65
2018-11-20T06:47:34.229Z,18.82
2018-11-20T06:50:26.350Z,19.42
2018-11-20T06:53:15.870Z,18.32
2018-11-20T06:56:03.424Z,18.52
2018-11-20T06:59:04.393Z,17.15
2018-11-20T07:01:53.346Z,16.32
2018-11-20T07:04:38.022Z,16.67
2018-11-20T07:07:29.998Z,15.55
2018-11-20T07:10:23.281Z,16.80
2018-11-20T07:13:11.125Z,17.32
2018-11-20T07:16:43.518Z,14.00
2018-11-20T07:19:43.077Z,16.57
2018-11-20T07:22:35.157Z,16.87
2018-11-20T07:25:14.793Z,15.00
2018-11-20T07:28:22.608Z,16.30
2018-11-20T07:31:13.900Z,17.42
2018-11-20T07:34:01.233Z,18.50
2018-11-20T07:36:49.275Z,15.23
2018-11-20T07:39:43.006Z,15.90
2018-11-20T07:42:21.277Z,17.32
2018-11-20T07:45:18.332Z,15.78
2018-11-20T07:48:30.829Z,17.25
2018-11-20T07:51:24.982Z,17.92
2018-11-20T07:54:16.106Z,17.73
2018-11-20T07:57:22.292Z,17.87
2018-11-20T08:00:04.573Z,20.52
2018-11-20T08:03:02.442Z,19.12
2018-11-20T08:05:57.792Z,20.52
2018-11-20T08:08:35.564Z,18.62
2018-11-20T08:11:26.864Z,19.15
2018-11-20T08:14:22.905Z,19.65
2018-11-20T08:17:16.740Z,18.48
2018-11-20T08:20:04.565Z,17.17
2018-11-20T08:22:52.489Z,19.50
2018-11-20T08:25:50.944Z,20.97
2018-11-20T08:28:48.888Z,18.40
2018-11-20T08:31:50.105Z,18.62
2018-11-20T08:34:45.161Z,18.27
2018-11-20T08:37:35.039Z,21.35
2018-11-20T08:40:29.457Z,20.60
2018-11-20T08:43:33.060Z,17.50
2018-11-20T08:46:46.361Z,20.25
2018-11-20T08:49:37.829Z,18.48
2018-11-20T08:52:47.709Z,18.05
2018-11-20T08:55:43.704Z,19.17
2018-11-20T08:58:29.040Z,19.05
2018-11-20T09:01:28.145Z,18.02
2018-11-20T09:04:24.089Z,17.20
2018-11-20T09:07:31.429Z,17.57
2018-11-20T09:10:29.650Z,15.50
2018-11-20T09:13:18.129Z,14.07
2018-11-20T09:16:09.736Z,14.78
2018-11-20T09:18:58.397Z,14.85
2018-11-20T09:21:46.581Z,13.28
2018-11-20T09:24:52.929Z,14.18
2018-11-20T09:28:00.313Z,13.15
2018-11-20T09:30:50.553Z,13.38
2018-11-20T09:33:49.725Z,11.90
2018-11-20T09:36:48.701Z,12.98
2018-11-20T09:39:39.824Z,10.88
2018-11-20T09:42:42.965Z,12.95
2018-11-20T09:46:09.157Z,11.35
2018-11-20T09:49:08.620Z,11.18
2018-11-20T09:51:59.969Z,12.05
2018-11-20T09:54:55.101Z,11.28
2018-11-20T09:57:44.140Z,11.05
2018-11-20T10:00:40.207Z,10.60
2018-11-20T10:03:44.549Z,12.00
2018-11-20T10:06:43.282Z,10.72
2018-11-20T10:09:35.109Z,12.40
2018-11-20T10:12:34.302Z,12.82
2018-11-20T10:15:25.037Z,12.73
2018-11-20T10:18:13.700Z,13.28
2018-11-20T10:21:17.446Z,12.53
2018-11-20T10:24:06.674Z,13.08
2018-11-20T10:26:57.565Z,14.45
2018-11-20T10:29:54.062Z,13.03
2018-11-20T10:33:08.049Z,14.73
2018-11-20T10:36:07.285Z,15.25
2018-11-20T10:38:57.193Z,13.22
2018-11-20T10:41:46.013Z,14.43
2018-11-20T10:44:36.994Z,14.53
2018-11-20T10:47:36.957Z,16.00
2018-11-20T10:50:25.121Z,15.23
2018-11-20T10:53:20.201Z,16.12
2018-11-20T10:56:27.800Z,14.75
2018-11-20T10:59:16.328Z,15.75
2018-11-20T11:02:05.157Z,15.63
2018-11-20T11:04:54.659Z,15.28
2018-11-20T11:08:04.226Z,18.57
2018-11-20T11:11:03.185Z,15.20
2018-11-20T11:13:56.153Z,15.20
2018-11-20T11:16:45.137Z,15.38
2018-11-20T11:19:29.422Z,15.18
2018-11-20T11:22:35.835Z,15.48
2018-11-20T11:25:29.195Z,14.85
2018-11-20T11:28:14.540Z,15.65
2018-11-20T11:31:06.487Z,14.75
2018-11-20T11:34:04.776Z,15.00
2018-11-20T11:36:54.215Z,14.98
2018-11-20T11:39:42.715Z,12.30
2018-11-20T11:42:38.294Z,13.50
2018-11-20T11:45:36.190Z,13.03
2018-11-20T11:48:33.102Z,13.65
2018-11-20T11:51:23.741Z,13.28
2018-11-20T11:54:16.546Z,13.53
2018-11-20T11:57:07.519Z,12.55
2018-11-20T12:00:13.343Z,11.93
2018-11-20T12:05:49.811Z,13.22
2018-11-20T12:08:38.155Z,13.55
2018-11-20T12:11:31.687Z,11.73
2018-11-20T12:14:33.915Z,12.33
2018-11-20T12:17:36.271Z,10.48
2018-11-20T12:20:34.276Z,11.57
2018-11-20T12:23:22.887Z,12.23
2018-11-20T12:26:14.403Z,10.30
2018-11-20T12:29:03.374Z,12.28
2018-11-20T12:31:53.318Z,10.60
2018-11-20T12:34:48.327Z,10.20
2018-11-20T12:37:35.867Z,10.53
2018-11-20T12:40:32.877Z,9.80
2018-11-20T12:43:19.246Z,10.98
2018-11-20T12:46:13.105Z,10.70
2018-11-20T12:48:58.556Z,9.75
2018-11-20T12:51:48.597Z,10.55
2018-11-20T12:54:35.231Z,9.35
2018-11-20T12:57:18.295Z,9.73
2018-11-20T13:00:00.402Z,9.23
2018-11-20T13:02:52.427Z,10.15
2018-11-20T13:05:49.511Z,8.73
2018-11-20T13:08:50.615Z,7.65
2018-11-20T13:11:36.051Z,7.80
2018-11-20T13:14:31.839Z,9.18
2018-11-20T13:17:11.282Z,8.43
2018-11-20T13:20:03.874Z,7.70
2018-11-20T13:22:51.237Z,7.15
2018-11-20T13:25:44.686Z,7.50
2018-11-20T13:28:37.184Z,7.90
2018-11-20T13:31:35.415Z,7.90
2018-11-20T13:34:27.253Z,8.35
2018-11-20T13:37:32.007Z,9.73
2018-11-20T13:40:22.891Z,7.03
2018-11-20T13:43:23.819Z,9.55
2018-11-20T13:46:38.729Z,9.10
2018-11-20T13:49:46.147Z,9.30
2018-11-20T13:52:45.206Z,9.93
2018-11-20T13:55:48.343Z,8.73
2018-11-20T13:58:46.139Z,10.30
2018-11-20T14:01:35.815Z,10.03
2018-11-20T14:04:27.634Z,10.03
2018-11-20T14:07:29.823Z,10.28
2018-11-20T14:10:43.196Z,10.23
2018-11-20T14:13:33.343Z,11.57
2018-11-20T14:16:18.107Z,9.63
2018-11-20T14:19:05.477Z,10.35
2018-11-20T14:21:46.283Z,10.90
2018-11-20T14:24:26.963Z,10.95
2018-11-20T14:27:25.223Z,10.48
2018-11-20T14:30:29.270Z,11.50
2018-11-20T14:33:31.396Z,11.12
2018-11-20T14:36:25.343Z,12.40
2018-11-20T14:39:17.243Z,11.30
2018-11-20T14:42:23.032Z,10.32
2018-11-20T14:45:18.027Z,10.03
2018-11-20T14:48:25.019Z,10.00
2018-11-20T14:51:25.195Z,10.60
2018-11-20T14:54:30.191Z,10.82
2018-11-20T14:57:31.483Z,11.05
2018-11-20T15:00:19.199Z,11.53
2018-11-20T15:03:22.519Z,10.68
2018-11-20T15:06:04.899Z,10.23
2018-11-20T15:08:55.195Z,12.07
2018-11-20T15:12:05.166Z,11.78
2018-11-20T15:15:09.915Z,10.40
2018-11-20T15:18:01.395Z,12.20
2018-11-20T15:21:02.627Z,12.95
2018-11-20T15:24:04.175Z,12.90
2018-11-20T15:26:44.667Z,13.00
2018-11-20T15:29:33.987Z,12.80
2018-11-20T15:32:41.269Z,13.75
2018-11-20T15:35:42.024Z,13.70
2018-11-20T15:38:29.958Z,14.20
2018-11-20T15:41:19.169Z,13.10
2018-11-20T15:44:06.525Z,13.62
2018-11-20T15:47:03.091Z,13.38
2018-11-20T15:49:54.904Z,13.13
2018-11-20T15:52:46.771Z,14.05
2018-11-20T15:55:34.472Z,14.03
2018-11-20T15:58:36.719Z,15.10
2018-11-20T16:01:25.299Z,14.78
2018-11-20T16:04:34.607Z,17.77
2018-11-20T16:07:18.094Z,18.27
2018-11-20T16:10:03.410Z,17.20
2018-11-20T16:12:58.069Z,16.93
2018-11-20T16:16:06.543Z,16.32
2018-11-20T16:18:42.679Z,16.12
2018-11-20T16:21:44.500Z,15.50
2018-11-20T16:24:32.855Z,16.62
2018-11-20T16:27:14.071Z,16.20
2018-11-20T16:30:09.419Z,16.87
2018-11-20T16:33:06.828Z,16.57
2018-11-20T16:36:07.143Z,16.15
2018-11-20T16:39:01.505Z,19.80
2018-11-20T16:41:53.215Z,17.77
2018-11-20T16:44:39.463Z,17.73
2018-11-20T16:47:23.179Z,18.15
2018-11-20T16:50:12.679Z,19.55
2018-11-20T16:53:10.995Z,18.25
2018-11-20T16:56:19.423Z,17.02
2018-11-20T16:59:26.666Z,17.98
2018-11-20T17:02:14.483Z,17.77
2018-11-20T17:05:53.046Z,19.90
2018-11-20T17:08:44.243Z,22.50
2018-11-20T17:11:35.171Z,20.15
2018-11-20T17:14:16.847Z,20.00
2018-11-20T17:17:17.047Z,18.50
2018-11-20T17:20:04.535Z,19.70
2018-11-20T17:22:52.450Z,20.90
2018-11-20T17:25:42.462Z,19.52
2018-11-20T17:28:35.211Z,19.50
2018-11-20T17:31:26.047Z,21.95
2018-11-20T17:34:27.244Z,22.25
2018-11-20T17:37:30.527Z,25.90
2018-11-20T17:40:21.075Z,24.87
2018-11-20T17:43:14.893Z,19.37
2018-11-20T17:46:16.811Z,20.60
2018-11-20T17:49:10.631Z,20.43
2018-11-20T17:51:58.871Z,21.17
2018-11-20T17:54:44.440Z,21.65
2018-11-20T17:57:33.483Z,20.72
2018-11-20T18:00:26.228Z,21.30
2018-11-20T18:03:07.598Z,22.37
2018-11-20T18:06:10.692Z,24.40
2018-11-20T18:09:03.749Z,21.90
2018-11-20T18:12:00.943Z,19.23
2018-11-20T18:14:40.661Z,20.35
2018-11-20T18:17:32.620Z,22.40
2018-11-20T18:20:21.984Z,21.60
2018-11-20T18:23:36.004Z,22.77
2018-11-20T18:26:19.833Z,21.93
2018-11-20T18:29:08.336Z,23.25
2018-11-20T18:32:07.191Z,23.42
2018-11-20T18:35:15.872Z,23.38
2018-11-20T18:38:33.732Z,22.50
2018-11-20T18:41:32.955Z,23.90
2018-11-20T18:44:19.151Z,24.00
2018-11-20T18:47:04.515Z,23.83
2018-11-20T18:49:58.676Z,26.45
2018-11-20T18:52:41.115Z,24.47
2018-11-20T18:55:35.767Z,23.10
2018-11-20T18:58:21.608Z,23.30
2018-11-20T19:01:13.884Z,22.58
2018-11-20T19:04:20.223Z,26.05
2018-11-20T19:07:21.283Z,23.07
2018-11-20T19:10:10.208Z,25.08
2018-11-20T19:13:02.176Z,23.92
2018-11-20T19:15:50.113Z,23.92
2018-11-20T19:18:51.500Z,25.57
2018-11-20T19:21:45.547Z,24.77
2018-11-20T19:24:40.120Z,24.75
2018-11-20T19:27:27.956Z,22.60
2018-11-20T19:30:32.158Z,23.10
2018-11-20T19:33:13.108Z,22.62
2018-11-20T19:35:57.187Z,25.12
2018-11-20T19:38:53.872Z,25.40
2018-11-20T19:41:47.903Z,25.77
2018-11-20T19:44:36.868Z,24.30
2018-11-20T19:47:28.047Z,28.73
2018-11-20T19:50:09.923Z,25.20
2018-11-20T19:53:02.443Z,23.10
2018-11-20T19:56:00.387Z,23.90
2018-11-20T19:59:07.552Z,25.82
2018-11-20T20:02:00.727Z,23.42
2018-11-20T20:04:59.535Z,26.17
2018-11-20T20:07:54.740Z,22.75
2018-11-20T20:10:39.239Z,23.77
2018-11-20T20:13:34.414Z,23.22
2018-11-20T20:16:41.800Z,22.60
2018-11-20T20:19:33.733Z,23.10
2018-11-20T20:22:44.006Z,21.87
2018-11-20T20:25:26.147Z,20.43
2018-11-20T20:28:18.128Z,20.95
2018-11-20T20:31:19.819Z,22.70
2018-11-20T20:34:10.991Z,21.37
2018-11-20T20:37:02.017Z,21.82
2018-11-20T20:39:57.260Z,22.45
2018-11-20T20:42:52.575Z,23.15
2018-11-20T20:45:38.396Z,22.73
2018-11-20T20:48:46.155Z,22.37
2018-11-20T20:51:38.255Z,20.75
2018-11-20T20:54:31.808Z,21.82
2018-11-20T20:57:31.380Z,20.15
2018-11-20T21:00:20.415Z,22.20
2018-11-20T21:03:08.269Z,22.05
2018-11-20T21:05:55.928Z,20.85
2018-11-20T21:09:01.425Z,21.85
2018-11-20T21:11:50.357Z,20.37
2018-11-20T21:14:32.819Z,20.20
2018-11-20T21:17:46.439Z,22.58
2018-11-20T21:20:44.944Z,20.62
2018-11-20T21:23:34.900Z,19.80
2018-11-20T21:26:27.567Z,19.37
2018-11-20T21:29:17.029Z,21.55
2018-11-20T21:32:12.996Z,21.05
2018-11-20T21:35:10.908Z,21.85
2018-11-20T21:38:05.512Z,17.67
2018-11-20T21:40:51.367Z,21.15
2018-11-20T21:43:39.227Z,22.30
2018-11-20T21:46:38.951Z,19.30
2018-11-20T21:49:44.070Z,20.65
2018-11-20T21:52:33.952Z,20.60
2018-11-20T21:55:28.944Z,20.45
2018-11-20T21:58:15.409Z,19.95
2018-11-20T22:01:17.083Z,20.05
2018-11-20T22:04:17.946Z,19.60
2018-11-20T22:07:22.825Z,19.42
2018-11-20T22:10:17.901Z,22.25
2018-11-20T22:13:14.932Z,18.60
2018-11-20T22:16:02.848Z,20.95
2018-11-20T22:19:05.065Z,19.85
2018-11-20T22:21:57.636Z,19.35
2018-11-20T22:24:46.560Z,20.30
2018-11-20T22:27:37.512Z,20.55
2018-11-20T22:30:31.352Z,19.92
2018-11-20T22:33:10.072Z,22.07
2018-11-20T22:36:15.392Z,19.75
2018-11-20T22:39:00.560Z,20.27
2018-11-20T22:41:49.269Z,20.35
2018-11-20T22:44:53.544Z,20.00
2018-11-20T22:47:54.629Z,19.77
2018-11-20T22:50:39.134Z,19.42
2018-11-20T22:53:36.088Z,19.12
2018-11-20T22:56:34.073Z,20.32
2018-11-20T22:59:24.671Z,21.23
2018-11-20T23:02:05.216Z,18.40
2018-11-20T23:04:54.301Z,20.43
2018-11-20T23:07:44.849Z,20.50
2018-11-20T23:10:18.164Z,18.75
2018-11-20T23:12:54.604Z,18.45
2018-11-20T23:15:33.960Z,21.00
2018-11-20T23:18:06.620Z,19.55
2018-11-20T23:20:36.532Z,19.40
2018-11-20T23:23:06.256Z,19.07
2018-11-20T23:25:38.038Z,20.75
2018-11-20T23:28:07.860Z,18.55
2018-11-20T23:30:37.772Z,20.02
2018-11-20T23:33:11.960Z,19.17
2018-11-20T23:35:43.764Z,19.40
2018-11-20T23:38:14.577Z,20.27
2018-11-20T23:40:44.464Z,18.10
2018-11-20T23:43:16.835Z,18.25
2018-11-20T23:45:48.948Z,16.75
2018-11-20T23:48:20.740Z,19.25
2018-11-20T23:50:51.504Z,19.87
2018-11-20T23:53:23.680Z,18.57
2018-11-20T23:56:00.580Z,21.87
2018-11-20T23:58:31.471Z,21.10
